createdAt,value
2019-03-15T00:00:33.468Z,16.93
2019-03-15T00:03:02.399Z,13.70
2019-03-15T00:05:31.792Z,9.50
2019-03-15T00:08:00.802Z,14.97
2019-03-15T00:10:29.967Z,9.23
2019-03-15T00:12:59.124Z,9.53
2019-03-15T00:15:28.129Z,16.47
2019-03-15T00:17:57.498Z,22.23
2019-03-15T00:20:26.804Z,17.00
2019-03-15T00:22:55.805Z,9.70
2019-03-15T00:25:24.860Z,11.40
2019-03-15T00:27:54.197Z,10.97
2019-03-15T00:30:23.456Z,8.37
2019-03-15T00:32:52.427Z,9.23
2019-03-15T00:35:21.371Z,21.87
2019-03-15T00:37:50.341Z,12.87
2019-03-15T00:40:19.843Z,8.40
2019-03-15T00:42:48.889Z,12.83
2019-03-15T00:45:17.899Z,8.73
2019-03-15T00:47:46.891Z,11.50
2019-03-15T00:50:15.895Z,9.20
2019-03-15T00:52:44.900Z,16.30
2019-03-15T00:55:13.947Z,12.50
2019-03-15T00:57:43.000Z,14.87
2019-03-15T01:00:13.547Z,13.40
2019-03-15T01:02:44.189Z,11.53
2019-03-15T01:05:13.833Z,12.50
2019-03-15T01:07:42.842Z,12.17
2019-03-15T01:10:12.336Z,13.47
2019-03-15T01:12:41.384Z,12.67
2019-03-15T01:15:10.404Z,12.00
2019-03-15T01:17:39.340Z,13.77
2019-03-15T01:20:08.604Z,13.37
2019-03-15T01:22:37.612Z,14.13
2019-03-15T01:25:06.670Z,13.93
2019-03-15T01:27:35.779Z,13.30
2019-03-15T01:30:05.257Z,14.83
2019-03-15T01:32:34.312Z,13.93
2019-03-15T01:35:03.443Z,15.87
2019-03-15T01:37:32.394Z,13.47
2019-03-15T01:40:01.483Z,17.13
2019-03-15T01:42:30.494Z,14.20
2019-03-15T01:44:59.593Z,14.83
2019-03-15T01:47:28.601Z,15.40
2019-03-15T01:49:58.614Z,14.27
2019-03-15T01:52:27.769Z,14.43
2019-03-15T01:54:56.962Z,13.60
2019-03-15T01:57:25.997Z,13.00
2019-03-15T01:59:55.050Z,13.07
2019-03-15T02:02:24.056Z,14.43
2019-03-15T02:04:53.027Z,13.33
2019-03-15T02:07:21.971Z,14.30
2019-03-15T02:09:51.227Z,14.50
2019-03-15T02:12:20.268Z,14.43
2019-03-15T02:14:49.319Z,13.23
2019-03-15T02:17:18.621Z,13.23
2019-03-15T02:19:47.677Z,13.20
2019-03-15T02:22:16.685Z,13.70
2019-03-15T02:24:45.692Z,14.60
2019-03-15T02:27:15.067Z,14.47
2019-03-15T02:29:44.151Z,15.20
2019-03-15T02:32:13.173Z,13.07
2019-03-15T02:34:42.150Z,12.83
2019-03-15T02:37:11.538Z,13.07
2019-03-15T02:39:40.932Z,13.07
2019-03-15T02:42:09.934Z,14.13
2019-03-15T02:44:39.356Z,13.50
2019-03-15T02:47:08.564Z,12.40
2019-03-15T02:49:37.627Z,12.07
2019-03-15T02:52:06.628Z,13.53
2019-03-15T02:54:35.638Z,12.87
2019-03-15T02:57:04.685Z,13.63
2019-03-15T02:59:33.745Z,12.77
2019-03-15T03:02:02.792Z,11.80
2019-03-15T03:04:31.841Z,12.30
2019-03-15T03:07:01.197Z,12.10
2019-03-15T03:09:30.207Z,11.83
2019-03-15T03:11:59.213Z,11.20
2019-03-15T03:14:28.256Z,12.27
2019-03-15T03:16:57.285Z,12.77
2019-03-15T03:19:26.396Z,13.00
2019-03-15T03:21:55.391Z,13.23
2019-03-15T03:24:24.654Z,13.57
2019-03-15T03:26:53.849Z,12.60
2019-03-15T03:29:22.923Z,13.47
2019-03-15T03:31:51.934Z,13.10
2019-03-15T03:34:21.241Z,12.63
2019-03-15T03:36:50.303Z,14.10
2019-03-15T03:39:19.321Z,14.90
2019-03-15T03:41:48.274Z,13.13
2019-03-15T03:44:17.404Z,13.30
2019-03-15T03:46:46.420Z,13.63
2019-03-15T03:49:15.462Z,14.27
2019-03-15T03:51:44.509Z,13.93
2019-03-15T03:54:13.557Z,12.77
2019-03-15T03:56:43.425Z,11.70
2019-03-15T03:59:12.677Z,14.40
2019-03-15T04:01:41.747Z,20.03
2019-03-15T04:04:10.880Z,13.60
2019-03-15T04:06:39.937Z,13.73
2019-03-15T04:09:09.457Z,13.70
2019-03-15T04:11:38.550Z,15.33
2019-03-15T04:14:07.590Z,12.97
2019-03-15T04:16:36.601Z,18.07
2019-03-15T04:19:05.707Z,14.27
2019-03-15T04:21:34.755Z,13.57
2019-03-15T04:24:03.805Z,17.13
2019-03-15T04:26:32.888Z,14.87
2019-03-15T04:29:01.881Z,14.47
2019-03-15T04:31:30.903Z,16.00
2019-03-15T04:34:00.281Z,14.27
2019-03-15T04:36:29.270Z,15.20
2019-03-15T04:38:58.274Z,14.17
2019-03-15T04:41:27.368Z,14.10
2019-03-15T04:43:56.392Z,19.93
2019-03-15T04:46:25.442Z,15.67
2019-03-15T04:48:54.475Z,19.60
2019-03-15T04:51:23.447Z,21.20
2019-03-15T04:53:52.692Z,22.30
2019-03-15T04:56:21.718Z,16.23
2019-03-15T04:58:50.745Z,15.10
2019-03-15T05:01:19.758Z,16.33
2019-03-15T05:03:48.821Z,17.37
2019-03-15T05:06:17.828Z,13.67
2019-03-15T05:08:46.886Z,29.80
2019-03-15T05:11:15.945Z,17.67
2019-03-15T05:13:44.921Z,19.97
2019-03-15T05:16:14.226Z,30.83
2019-03-15T05:18:43.277Z,22.97
2019-03-15T05:21:12.693Z,26.33
2019-03-15T05:23:41.736Z,21.87
2019-03-15T05:26:10.790Z,49.40
2019-03-15T05:28:39.791Z,26.73
2019-03-15T05:31:08.833Z,22.53
2019-03-15T05:33:37.884Z,35.70
2019-03-15T05:36:06.897Z,21.53
2019-03-15T05:38:35.913Z,40.70
2019-03-15T05:41:05.075Z,23.30
2019-03-15T05:43:34.085Z,26.50
2019-03-15T05:46:03.143Z,24.77
2019-03-15T05:48:32.197Z,30.43
2019-03-15T05:51:01.133Z,36.73
2019-03-15T05:53:30.181Z,32.53
2019-03-15T05:55:59.114Z,25.50
2019-03-15T05:58:28.049Z,30.77
2019-03-15T06:00:57.099Z,29.07
2019-03-15T06:03:26.140Z,30.47
2019-03-15T06:05:55.113Z,27.13
2019-03-15T06:08:27.432Z,26.00
2019-03-15T06:10:55.045Z,39.37
2019-03-15T06:13:24.043Z,33.97
2019-03-15T06:15:53.055Z,44.30
2019-03-15T06:18:22.094Z,27.17
2019-03-15T06:20:51.091Z,38.43
2019-03-15T06:23:20.084Z,26.63
2019-03-15T06:25:49.314Z,24.83
2019-03-15T06:28:18.325Z,30.20
2019-03-15T06:30:47.392Z,29.10
2019-03-15T06:33:16.327Z,36.70
2019-03-15T06:35:45.385Z,28.13
2019-03-15T06:38:14.359Z,36.43
2019-03-15T06:40:43.328Z,26.43
2019-03-15T06:43:13.475Z,32.77
2019-03-15T06:45:42.983Z,28.17
2019-03-15T06:48:12.339Z,37.30
2019-03-15T06:50:41.398Z,28.97
2019-03-15T06:53:10.361Z,32.37
2019-03-15T06:55:39.609Z,41.37
2019-03-15T06:58:08.580Z,40.07
2019-03-15T07:00:37.593Z,28.23
2019-03-15T07:03:06.646Z,27.73
2019-03-15T07:05:35.687Z,30.90
2019-03-15T07:08:04.748Z,32.73
2019-03-15T07:10:33.764Z,45.93
2019-03-15T07:13:02.773Z,39.80
2019-03-15T07:15:31.827Z,42.53
2019-03-15T07:18:00.829Z,35.53
2019-03-15T07:20:29.928Z,44.70
2019-03-15T07:22:58.930Z,34.40
2019-03-15T07:25:27.946Z,33.00
2019-03-15T07:27:56.912Z,41.53
2019-03-15T07:30:25.959Z,32.63
2019-03-15T07:32:54.969Z,34.10
2019-03-15T07:35:24.019Z,33.80
2019-03-15T07:37:53.005Z,34.43
2019-03-15T07:40:22.012Z,34.00
2019-03-15T07:42:51.026Z,33.70
2019-03-15T07:45:20.077Z,43.70
2019-03-15T07:47:49.084Z,21.13
2019-03-15T07:50:18.128Z,48.70
2019-03-15T07:52:47.137Z,42.23
2019-03-15T07:55:16.185Z,38.07
2019-03-15T07:57:45.203Z,30.57
2019-03-15T08:00:14.581Z,40.20
2019-03-15T08:02:43.631Z,31.10
2019-03-15T08:05:12.699Z,29.87
2019-03-15T08:07:45.158Z,42.43
2019-03-15T08:10:12.931Z,34.50
2019-03-15T08:12:42.006Z,27.83
2019-03-15T08:15:11.096Z,23.13
2019-03-15T08:17:40.146Z,29.23
2019-03-15T08:20:09.930Z,35.10
2019-03-15T08:22:38.974Z,40.73
2019-03-15T08:25:09.236Z,21.73
2019-03-15T08:27:38.297Z,34.77
2019-03-15T08:30:09.621Z,28.37
2019-03-15T08:32:38.679Z,31.37
2019-03-15T08:35:08.590Z,37.40
2019-03-15T08:37:37.600Z,25.70
2019-03-15T08:40:07.740Z,39.87
2019-03-15T08:42:36.834Z,28.57
2019-03-15T08:45:07.736Z,32.77
2019-03-15T08:47:36.798Z,29.07
2019-03-15T08:50:06.394Z,40.00
2019-03-15T08:52:35.404Z,52.93
2019-03-15T08:55:05.889Z,31.13
2019-03-15T09:00:15.540Z,27.00
2019-03-15T09:02:45.481Z,31.40
2019-03-15T09:05:14.489Z,26.30
2019-03-15T09:07:43.541Z,27.83
2019-03-15T09:10:22.852Z,32.00
2019-03-15T09:12:43.615Z,28.20
2019-03-15T09:15:12.849Z,28.23
2019-03-15T09:17:41.847Z,32.83
2019-03-15T09:20:10.998Z,36.97
2019-03-15T09:22:40.015Z,27.80
2019-03-15T09:25:19.348Z,32.13
2019-03-15T09:27:40.009Z,33.60
2019-03-15T09:30:22.576Z,39.33
2019-03-15T09:32:40.488Z,34.03
2019-03-15T09:35:09.601Z,35.97
2019-03-15T09:37:38.649Z,28.07
2019-03-15T09:40:08.465Z,28.27
2019-03-15T09:42:37.473Z,37.90
2019-03-15T09:45:06.975Z,28.63
2019-03-15T09:47:35.990Z,30.70
2019-03-15T09:50:05.525Z,26.30
2019-03-15T09:52:35.639Z,30.40
2019-03-15T09:55:05.088Z,30.07
2019-03-15T09:57:34.089Z,28.63
2019-03-15T10:00:03.068Z,28.33
2019-03-15T10:02:32.085Z,25.60
2019-03-15T10:05:10.792Z,33.83
2019-03-15T10:07:38.437Z,21.20
2019-03-15T10:10:13.020Z,21.20
2019-03-15T10:12:33.954Z,21.23
2019-03-15T10:15:02.966Z,20.90
2019-03-15T10:17:32.014Z,24.37
2019-03-15T10:20:01.050Z,20.67
2019-03-15T10:22:30.097Z,29.07
2019-03-15T10:24:59.113Z,22.00
2019-03-15T10:27:28.475Z,24.60
2019-03-15T10:29:57.333Z,21.63
2019-03-15T10:32:26.394Z,24.60
2019-03-15T10:34:55.518Z,23.30
2019-03-15T10:37:24.496Z,22.27
2019-03-15T10:39:53.515Z,25.77
2019-03-15T10:42:22.569Z,27.93
2019-03-15T10:44:51.984Z,24.53
2019-03-15T10:47:20.897Z,24.90
2019-03-15T10:49:50.251Z,24.70
2019-03-15T10:52:19.297Z,23.00
2019-03-15T10:54:48.349Z,21.87
2019-03-15T10:57:17.277Z,20.87
2019-03-15T10:59:46.336Z,19.07
2019-03-15T11:02:15.349Z,20.97
2019-03-15T11:04:44.358Z,21.67
2019-03-15T11:07:13.445Z,20.37
2019-03-15T11:09:42.457Z,19.77
2019-03-15T11:12:11.500Z,21.13
2019-03-15T11:14:40.839Z,21.17
2019-03-15T11:17:09.888Z,22.07
2019-03-15T11:19:38.874Z,19.83
2019-03-15T11:22:07.872Z,19.30
2019-03-15T11:24:36.930Z,20.70
2019-03-15T11:27:06.046Z,20.13
2019-03-15T11:29:35.054Z,20.60
2019-03-15T11:32:04.073Z,20.80
2019-03-15T11:34:33.092Z,19.60
2019-03-15T11:37:03.506Z,19.03
2019-03-15T11:39:32.749Z,17.47
2019-03-15T11:42:01.722Z,17.70
2019-03-15T11:44:30.780Z,17.87
2019-03-15T11:46:59.793Z,18.87
2019-03-15T11:49:28.815Z,17.37
2019-03-15T11:52:03.310Z,16.97
2019-03-15T11:54:32.318Z,18.80
2019-03-15T11:57:01.259Z,17.67
2019-03-15T11:59:30.297Z,17.83
2019-03-15T12:02:04.155Z,15.43
2019-03-15T12:04:30.098Z,16.20
2019-03-15T12:06:59.106Z,15.40
2019-03-15T12:09:28.150Z,15.57
2019-03-15T12:11:57.055Z,14.73
2019-03-15T12:14:25.907Z,14.63
2019-03-15T12:16:54.921Z,13.83
2019-03-15T12:19:24.001Z,12.27
2019-03-15T12:22:05.380Z,12.90
2019-03-15T12:24:23.739Z,11.97
2019-03-15T12:26:52.845Z,11.87
2019-03-15T12:29:21.821Z,11.80
2019-03-15T12:31:50.830Z,11.07
2019-03-15T12:34:19.874Z,12.17
2019-03-15T12:36:48.878Z,12.67
2019-03-15T12:39:18.268Z,11.83
2019-03-15T12:41:47.317Z,12.50
2019-03-15T12:44:16.329Z,12.03
2019-03-15T12:46:45.380Z,12.43
2019-03-15T12:49:14.313Z,13.80
2019-03-15T12:51:43.321Z,14.27
2019-03-15T12:54:12.369Z,14.87
2019-03-15T12:56:53.182Z,16.00
2019-03-15T12:59:12.376Z,27.60
2019-03-15T13:01:41.425Z,29.13
2019-03-15T13:04:10.437Z,23.50
2019-03-15T13:06:39.519Z,21.80
2019-03-15T13:09:08.533Z,24.90
2019-03-15T13:11:37.583Z,22.67
2019-03-15T13:14:06.609Z,26.10
2019-03-15T13:16:35.615Z,27.50
2019-03-15T13:19:04.669Z,35.13
2019-03-15T13:21:33.678Z,26.83
2019-03-15T13:24:02.750Z,32.37
2019-03-15T13:26:31.683Z,33.67
2019-03-15T13:29:00.641Z,33.20
2019-03-15T13:31:29.619Z,34.10
2019-03-15T13:33:58.626Z,28.40
2019-03-15T13:36:29.043Z,26.57
2019-03-15T13:38:58.103Z,23.77
2019-03-15T13:41:27.152Z,23.80
2019-03-15T13:43:56.165Z,25.10
2019-03-15T13:46:25.209Z,27.70
2019-03-15T13:48:54.156Z,24.73
2019-03-15T13:51:23.169Z,28.03
2019-03-15T13:53:53.124Z,27.67
2019-03-15T13:56:22.182Z,21.97
2019-03-15T13:58:57.273Z,24.00
2019-03-15T14:01:21.854Z,31.97
2019-03-15T14:03:50.921Z,25.17
2019-03-15T14:06:19.931Z,22.20
2019-03-15T14:08:48.942Z,27.73
2019-03-15T14:11:17.985Z,23.97
2019-03-15T14:13:46.995Z,22.83
2019-03-15T14:16:16.065Z,24.43
2019-03-15T14:18:45.109Z,23.93
2019-03-15T14:21:14.169Z,28.23
2019-03-15T14:23:43.628Z,20.70
2019-03-15T14:26:12.950Z,31.93
2019-03-15T14:28:41.975Z,20.37
2019-03-15T14:31:10.937Z,16.77
2019-03-15T14:33:39.921Z,27.27
2019-03-15T14:36:08.941Z,25.73
2019-03-15T14:38:38.041Z,23.40
2019-03-15T14:41:07.660Z,30.83
2019-03-15T14:43:37.209Z,23.07
2019-03-15T14:46:06.292Z,23.27
2019-03-15T14:48:35.316Z,24.90
2019-03-15T14:51:04.369Z,26.53
2019-03-15T14:53:33.688Z,23.90
2019-03-15T14:56:02.742Z,21.90
2019-03-15T14:58:31.681Z,24.83
2019-03-15T15:01:00.731Z,22.33
2019-03-15T15:03:29.779Z,31.17
2019-03-15T15:05:58.806Z,20.73
2019-03-15T15:08:27.790Z,23.80
2019-03-15T15:10:57.056Z,30.43
2019-03-15T15:13:26.108Z,26.07
2019-03-15T15:15:55.114Z,29.53
2019-03-15T15:18:24.100Z,26.17
2019-03-15T15:20:53.114Z,27.67
2019-03-15T15:23:22.401Z,29.23
2019-03-15T15:25:51.789Z,23.10
2019-03-15T15:28:20.774Z,28.73
2019-03-15T15:30:49.836Z,25.07
2019-03-15T15:33:18.788Z,32.47
2019-03-15T15:35:47.821Z,23.63
2019-03-15T15:38:16.882Z,33.57
2019-03-15T15:40:45.905Z,27.50
2019-03-15T15:43:14.966Z,30.20
2019-03-15T15:45:44.030Z,29.13
2019-03-15T15:48:13.033Z,28.73
2019-03-15T15:50:42.092Z,25.73
2019-03-15T15:53:11.423Z,26.70
2019-03-15T15:55:40.352Z,31.30
2019-03-15T15:58:17.765Z,30.27
2019-03-15T16:00:40.510Z,28.47
2019-03-15T16:03:09.643Z,26.47
2019-03-15T16:05:38.692Z,32.23
2019-03-15T16:08:07.782Z,26.17
2019-03-15T16:10:36.793Z,31.00
2019-03-15T16:13:16.551Z,35.90
2019-03-15T16:15:36.600Z,19.53
2019-03-15T16:18:05.668Z,25.73
2019-03-15T16:20:34.684Z,24.83
2019-03-15T16:23:03.771Z,35.00
2019-03-15T16:25:33.103Z,26.30
2019-03-15T16:28:02.040Z,24.20
2019-03-15T16:30:31.095Z,22.43
2019-03-15T16:33:02.141Z,36.23
2019-03-15T16:35:31.198Z,39.63
2019-03-15T16:38:00.199Z,20.73
2019-03-15T16:40:29.249Z,26.27
2019-03-15T16:42:58.239Z,24.93
2019-03-15T16:45:27.298Z,31.00
2019-03-15T16:47:56.345Z,33.00
2019-03-15T16:50:25.439Z,29.43
2019-03-15T16:52:54.759Z,34.87
2019-03-15T16:55:23.778Z,26.20
2019-03-15T16:57:52.844Z,30.43
2019-03-15T17:00:21.849Z,21.50
2019-03-15T17:02:50.937Z,29.33
2019-03-15T17:05:19.977Z,25.47
2019-03-15T17:07:48.986Z,35.20
2019-03-15T17:10:18.052Z,36.90
2019-03-15T17:12:50.597Z,28.90
2019-03-15T17:15:19.684Z,41.17
2019-03-15T17:17:48.706Z,28.47
2019-03-15T17:20:17.923Z,25.33
2019-03-15T17:22:47.040Z,29.27
2019-03-15T17:25:16.040Z,35.43
2019-03-15T17:27:45.094Z,35.37
2019-03-15T17:30:14.226Z,33.80
2019-03-15T17:32:43.251Z,23.13
2019-03-15T17:35:12.510Z,27.00
2019-03-15T17:37:41.617Z,31.43
2019-03-15T17:40:11.679Z,34.97
2019-03-15T17:42:40.676Z,21.57
2019-03-15T17:45:10.547Z,20.03
2019-03-15T17:47:39.611Z,28.93
2019-03-15T17:50:11.644Z,29.03
2019-03-15T17:52:40.655Z,33.90
2019-03-15T17:55:09.736Z,27.67
2019-03-15T17:57:38.804Z,23.90
2019-03-15T18:00:45.164Z,26.10
2019-03-15T18:03:21.514Z,25.60
2019-03-15T18:05:45.683Z,13.83
2019-03-15T18:08:14.696Z,13.30
2019-03-15T18:10:43.754Z,13.37
2019-03-15T18:13:12.857Z,17.57
2019-03-15T18:15:43.655Z,13.13
2019-03-15T18:18:12.674Z,11.20
2019-03-15T18:20:41.733Z,14.00
2019-03-15T18:23:11.053Z,13.40
2019-03-15T18:25:40.056Z,15.53
2019-03-15T18:28:09.425Z,17.53
2019-03-15T18:30:38.760Z,16.57
2019-03-15T18:33:07.766Z,14.20
2019-03-15T18:35:36.804Z,29.03
2019-03-15T18:38:05.888Z,18.13
2019-03-15T18:40:34.906Z,14.23
2019-03-15T18:43:03.924Z,14.33
2019-03-15T18:45:32.996Z,14.30
2019-03-15T18:48:02.000Z,14.40
2019-03-15T18:50:31.010Z,18.77
2019-03-15T18:53:00.352Z,11.97
2019-03-15T18:55:29.361Z,18.17
2019-03-15T18:57:58.408Z,13.77
2019-03-15T19:00:27.417Z,11.87
2019-03-15T19:02:59.716Z,12.37
2019-03-15T19:05:27.253Z,16.23
2019-03-15T19:07:56.267Z,12.53
2019-03-15T19:10:25.337Z,12.97
2019-03-15T19:12:54.735Z,12.53
2019-03-15T19:15:23.840Z,12.40
2019-03-15T19:17:52.882Z,12.47
2019-03-15T19:20:21.945Z,14.43
2019-03-15T19:22:50.962Z,17.10
2019-03-15T19:25:20.021Z,13.10
2019-03-15T19:27:49.131Z,13.17
2019-03-15T19:30:18.198Z,18.83
2019-03-15T19:32:47.268Z,19.80
2019-03-15T19:35:16.478Z,18.83
2019-03-15T19:37:45.481Z,13.50
2019-03-15T19:40:14.577Z,15.17
2019-03-15T19:42:45.508Z,19.50
2019-03-15T19:45:14.765Z,37.73
2019-03-15T19:47:43.771Z,19.60
2019-03-15T19:50:13.988Z,22.37
2019-03-15T19:52:43.243Z,16.13
2019-03-15T19:55:12.904Z,16.77
2019-03-15T19:57:41.926Z,25.30
2019-03-15T20:00:13.143Z,20.53
2019-03-15T20:02:42.298Z,21.27
2019-03-15T20:05:11.325Z,23.97
2019-03-15T20:07:40.476Z,14.07
2019-03-15T20:10:10.985Z,13.23
2019-03-15T20:12:40.072Z,13.63
2019-03-15T20:15:09.700Z,13.90
2019-03-15T20:17:38.716Z,12.40
2019-03-15T20:20:08.773Z,13.47
2019-03-15T20:22:37.928Z,16.10
2019-03-15T20:25:08.461Z,18.90
2019-03-15T20:27:37.513Z,13.53
2019-03-15T20:30:20.156Z,13.30
2019-03-15T20:32:38.156Z,14.40
2019-03-15T20:35:07.309Z,13.30
2019-03-15T20:37:36.319Z,13.00
2019-03-15T20:40:05.841Z,19.53
2019-03-15T20:42:34.803Z,26.97
2019-03-15T20:45:04.035Z,16.70
2019-03-15T20:47:36.076Z,33.20
2019-03-15T20:50:03.844Z,24.43
2019-03-15T20:52:32.952Z,20.40
2019-03-15T20:55:01.946Z,15.00
2019-03-15T20:57:30.966Z,15.97
2019-03-15T21:00:00.000Z,16.87
2019-03-15T21:02:29.063Z,28.53
2019-03-15T21:04:58.087Z,16.83
2019-03-15T21:07:27.232Z,24.10
2019-03-15T21:09:56.236Z,20.60
2019-03-15T21:12:26.270Z,14.00
2019-03-15T21:14:55.334Z,16.00
2019-03-15T21:17:24.289Z,22.53
2019-03-15T21:19:53.300Z,25.37
2019-03-15T21:22:22.363Z,16.77
2019-03-15T21:24:51.298Z,30.30
2019-03-15T21:27:20.345Z,28.67
2019-03-15T21:29:49.640Z,20.67
2019-03-15T21:32:18.838Z,15.10
2019-03-15T21:34:47.877Z,26.87
2019-03-15T21:37:16.933Z,15.60
2019-03-15T21:39:45.959Z,19.13
2019-03-15T21:42:15.031Z,24.53
2019-03-15T21:44:44.076Z,14.80
2019-03-15T21:47:13.149Z,20.83
2019-03-15T21:49:42.190Z,24.67
2019-03-15T21:52:12.581Z,31.60
2019-03-15T21:54:43.106Z,26.43
2019-03-15T21:57:12.120Z,26.13
2019-03-15T21:59:41.048Z,31.43
2019-03-15T22:02:10.111Z,36.93
2019-03-15T22:04:39.428Z,27.10
2019-03-15T22:07:08.500Z,23.93
2019-03-15T22:09:37.449Z,25.37
2019-03-15T22:12:06.480Z,16.50
2019-03-15T22:14:35.503Z,22.40
2019-03-15T22:17:04.560Z,16.87
2019-03-15T22:19:33.604Z,20.13
2019-03-15T22:22:02.660Z,27.93
2019-03-15T22:24:31.689Z,19.53
2019-03-15T22:27:01.049Z,14.43
2019-03-15T22:29:30.180Z,15.23
2019-03-15T22:31:59.205Z,24.20
2019-03-15T22:34:28.551Z,15.67
2019-03-15T22:36:57.607Z,22.40
2019-03-15T22:39:26.664Z,25.10
2019-03-15T22:41:55.675Z,31.63
2019-03-15T22:44:24.722Z,47.20
2019-03-15T22:46:53.734Z,64.77
2019-03-15T22:49:22.786Z,38.83
2019-03-15T22:51:51.833Z,50.23
2019-03-15T22:54:20.843Z,43.07
2019-03-15T22:56:49.906Z,38.73
2019-03-15T22:59:18.946Z,34.27
2019-03-15T23:01:48.084Z,26.97
2019-03-15T23:04:17.145Z,30.87
2019-03-15T23:06:46.149Z,28.13
2019-03-15T23:09:15.203Z,51.63
2019-03-15T23:11:44.298Z,29.63
2019-03-15T23:14:13.696Z,36.13
2019-03-15T23:16:42.882Z,31.17
2019-03-15T23:19:11.889Z,28.03
2019-03-15T23:21:40.821Z,28.57
2019-03-15T23:24:09.873Z,38.73
2019-03-15T23:26:38.989Z,38.97
2019-03-15T23:29:08.039Z,30.03
2019-03-15T23:31:43.677Z,24.63
2019-03-15T23:34:07.833Z,29.80
2019-03-15T23:36:36.909Z,30.87
2019-03-15T23:39:07.182Z,26.67
2019-03-15T23:41:36.240Z,35.57
2019-03-15T23:44:05.354Z,25.63
2019-03-15T23:46:34.409Z,27.67
2019-03-15T23:49:03.451Z,40.00
2019-03-15T23:51:32.579Z,33.97
2019-03-15T23:54:01.620Z,33.73
2019-03-15T23:56:30.929Z,32.33
2019-03-15T23:58:59.980Z,24.70
